createdAt,value
2022-11-24T00:02:01.171Z,23.80
2022-11-24T00:04:30.298Z,21.75
2022-11-24T00:06:59.301Z,32.28
2022-11-24T00:09:28.246Z,13.13
2022-11-24T00:11:58.403Z,6.95
2022-11-24T00:14:27.616Z,10.65
2022-11-24T00:16:56.885Z,7.10
2022-11-24T00:19:29.077Z,3.63
2022-11-24T00:21:58.541Z,7.05
2022-11-24T00:24:27.373Z,13.57
2022-11-24T00:26:56.228Z,12.68
2022-11-24T00:29:25.457Z,11.50
2022-11-24T00:31:54.481Z,8.70
2022-11-24T00:34:23.834Z,9.48
2022-11-24T00:36:52.934Z,7.90
2022-11-24T00:39:21.963Z,5.85
2022-11-24T00:41:51.065Z,4.97
2022-11-24T00:44:22.505Z,11.93
2022-11-24T00:46:51.804Z,11.90
2022-11-24T00:49:25.830Z,11.23
2022-11-24T00:52:16.256Z,8.77
2022-11-24T00:55:32.257Z,7.82
2022-11-24T00:58:14.013Z,8.43
2022-11-24T01:00:50.918Z,9.02
2022-11-24T01:04:48.884Z,7.63
2022-11-24T01:07:00.979Z,7.38
2022-11-24T01:09:40.210Z,6.22
2022-11-24T01:12:09.831Z,9.45
2022-11-24T01:14:49.410Z,5.93
2022-11-24T01:17:34.332Z,7.25
2022-11-24T01:20:03.957Z,7.18
2022-11-24T01:22:36.098Z,8.52
2022-11-24T01:25:05.838Z,12.80
2022-11-24T01:27:35.269Z,8.18
2022-11-24T01:30:06.177Z,4.95
2022-11-24T01:32:43.923Z,6.13
2022-11-24T01:35:20.085Z,9.95
2022-11-24T01:37:49.356Z,9.32
2022-11-24T01:40:20.183Z,8.07
2022-11-24T01:42:54.126Z,5.43
2022-11-24T01:45:39.578Z,8.15
2022-11-24T01:48:58.850Z,9.55
2022-11-24T01:51:34.899Z,9.43
2022-11-24T01:54:31.502Z,9.00
2022-11-24T01:57:27.296Z,9.63
2022-11-24T02:00:12.204Z,11.43
2022-11-24T02:02:46.246Z,22.15
2022-11-24T02:05:39.289Z,17.33
2022-11-24T02:08:39.968Z,18.73
2022-11-24T02:11:19.879Z,10.32
2022-11-24T02:14:03.686Z,6.35
2022-11-24T02:16:35.587Z,12.65
2022-11-24T02:19:24.612Z,12.00
2022-11-24T02:21:53.955Z,14.00
2022-11-24T02:24:40.712Z,13.73
2022-11-24T02:27:12.112Z,13.52
2022-11-24T02:29:42.026Z,9.60
2022-11-24T02:32:12.171Z,8.85
2022-11-24T02:34:41.250Z,9.27
2022-11-24T02:37:10.496Z,8.40
2022-11-24T02:39:41.621Z,7.78
2022-11-24T02:42:15.271Z,6.28
2022-11-24T02:44:52.427Z,7.93
2022-11-24T02:47:21.901Z,6.78
2022-11-24T02:49:54.293Z,10.88
2022-11-24T02:52:23.803Z,11.23
2022-11-24T02:54:56.057Z,6.18
2022-11-24T02:57:27.690Z,9.98
2022-11-24T02:59:56.949Z,7.55
2022-11-24T03:02:26.273Z,10.10
2022-11-24T03:04:55.201Z,7.55
2022-11-24T03:07:24.418Z,6.90
2022-11-24T03:09:53.339Z,8.43
2022-11-24T03:12:22.189Z,9.13
2022-11-24T03:14:51.042Z,7.50
2022-11-24T03:17:19.903Z,6.55
2022-11-24T03:19:48.905Z,9.43
2022-11-24T03:22:18.226Z,6.32
2022-11-24T03:24:47.195Z,6.18
2022-11-24T03:27:16.141Z,6.47
2022-11-24T03:29:46.271Z,7.30
2022-11-24T03:32:15.446Z,6.03
2022-11-24T03:35:53.940Z,8.48
2022-11-24T03:38:40.308Z,7.15
2022-11-24T03:41:15.546Z,7.05
2022-11-24T03:43:59.476Z,9.02
2022-11-24T03:46:40.733Z,9.68
2022-11-24T03:49:10.888Z,7.85
2022-11-24T03:51:39.790Z,8.18
2022-11-24T03:54:10.041Z,8.63
2022-11-24T03:56:38.939Z,6.97
2022-11-24T03:59:07.827Z,6.93
2022-11-24T04:01:37.425Z,10.73
2022-11-24T04:04:13.750Z,7.20
2022-11-24T04:06:42.699Z,14.48
2022-11-24T04:09:11.835Z,8.40
2022-11-24T04:12:02.130Z,6.32
2022-11-24T04:17:00.105Z,7.07
2022-11-24T04:19:30.190Z,4.97
2022-11-24T04:21:59.322Z,5.10
2022-11-24T04:24:28.463Z,4.82
2022-11-24T04:26:57.514Z,11.80
2022-11-24T04:29:27.046Z,11.07
2022-11-24T04:31:56.458Z,5.30
2022-11-24T04:34:25.630Z,7.50
2022-11-24T04:36:55.215Z,7.22
2022-11-24T04:39:28.565Z,7.68
2022-11-24T04:41:58.055Z,7.78
2022-11-24T04:44:27.102Z,9.90
2022-11-24T04:47:02.053Z,5.20
2022-11-24T04:49:31.503Z,8.73
2022-11-24T04:52:00.863Z,6.35
2022-11-24T04:54:30.369Z,9.15
2022-11-24T04:56:59.446Z,7.90
2022-11-24T04:59:28.580Z,7.90
2022-11-24T05:02:05.292Z,8.43
2022-11-24T05:04:34.646Z,10.07
2022-11-24T05:07:17.929Z,8.32
2022-11-24T05:10:17.129Z,8.13
2022-11-24T05:12:51.149Z,6.72
2022-11-24T05:15:31.180Z,6.13
2022-11-24T05:18:00.374Z,9.55
2022-11-24T05:20:30.533Z,15.95
2022-11-24T05:23:03.936Z,25.20
2022-11-24T05:25:35.862Z,26.98
2022-11-24T05:28:07.034Z,46.75
2022-11-24T05:30:37.237Z,33.60
2022-11-24T05:33:13.031Z,13.15
2022-11-24T05:35:41.983Z,19.17
2022-11-24T05:38:10.980Z,37.70
2022-11-24T05:40:40.224Z,44.90
2022-11-24T05:43:17.428Z,31.52
2022-11-24T05:45:46.730Z,26.17
2022-11-24T05:48:17.103Z,23.08
2022-11-24T05:50:46.126Z,24.10
2022-11-24T05:53:29.967Z,19.05
2022-11-24T05:56:05.162Z,25.65
2022-11-24T05:58:34.352Z,19.25
2022-11-24T06:01:07.979Z,13.55
2022-11-24T06:03:37.048Z,8.27
2022-11-24T06:06:06.050Z,18.55
2022-11-24T06:08:35.848Z,21.00
2022-11-24T06:11:40.177Z,16.83
2022-11-24T06:14:11.567Z,11.77
2022-11-24T06:16:42.419Z,14.68
2022-11-24T06:19:13.014Z,17.70
2022-11-24T06:21:43.645Z,28.67
2022-11-24T06:24:12.960Z,23.67
2022-11-24T06:26:44.055Z,30.80
2022-11-24T06:29:13.896Z,39.47
2022-11-24T06:31:43.034Z,30.13
2022-11-24T06:34:15.603Z,26.80
2022-11-24T06:36:44.555Z,18.95
2022-11-24T06:39:13.741Z,18.42
2022-11-24T06:41:43.003Z,10.40
2022-11-24T06:44:12.359Z,6.85
2022-11-24T06:46:41.654Z,10.15
2022-11-24T06:49:10.662Z,9.18
2022-11-24T06:51:39.712Z,6.68
2022-11-24T06:54:10.267Z,5.85
2022-11-24T06:56:39.870Z,9.93
2022-11-24T06:59:11.213Z,7.43
2022-11-24T07:01:40.530Z,9.80
2022-11-24T07:04:12.470Z,8.00
2022-11-24T07:06:42.368Z,11.25
2022-11-24T07:09:13.480Z,6.93
2022-11-24T07:11:42.943Z,6.05
2022-11-24T07:14:12.140Z,5.15
2022-11-24T07:16:41.595Z,3.05
2022-11-24T07:19:12.116Z,11.18
2022-11-24T07:21:42.200Z,94.43
2022-11-24T07:24:11.450Z,44.28
2022-11-24T07:26:40.925Z,58.05
2022-11-24T07:29:10.159Z,179.57
2022-11-24T07:31:39.429Z,71.82
2022-11-24T07:34:08.595Z,41.10
2022-11-24T07:36:37.713Z,20.50
2022-11-24T07:39:08.119Z,17.67
2022-11-24T07:41:40.669Z,13.27
2022-11-24T07:44:09.902Z,8.63
2022-11-24T07:46:38.869Z,8.50
2022-11-24T07:49:10.957Z,4.88
2022-11-24T07:51:40.160Z,6.05
2022-11-24T07:54:09.326Z,9.35
2022-11-24T07:56:39.101Z,7.15
2022-11-24T07:59:08.295Z,7.43
2022-11-24T08:01:40.353Z,7.80
2022-11-24T08:04:13.978Z,9.50
2022-11-24T08:06:50.532Z,9.43
2022-11-24T08:09:23.204Z,9.30
2022-11-24T08:11:52.397Z,9.90
2022-11-24T08:14:21.459Z,6.18
2022-11-24T08:16:50.377Z,3.63
2022-11-24T08:19:19.273Z,5.53
2022-11-24T08:21:48.644Z,6.53
2022-11-24T08:24:17.982Z,14.88
2022-11-24T08:26:47.449Z,17.05
2022-11-24T08:29:16.480Z,12.23
2022-11-24T08:31:45.643Z,6.95
2022-11-24T08:34:14.740Z,8.30
2022-11-24T08:36:44.738Z,6.05
2022-11-24T08:39:14.221Z,9.00
2022-11-24T08:41:46.322Z,6.40
2022-11-24T08:44:19.013Z,2.97
2022-11-24T08:46:48.003Z,2.50
2022-11-24T08:49:17.482Z,5.60
2022-11-24T08:51:49.319Z,4.18
2022-11-24T08:54:19.671Z,6.03
2022-11-24T08:56:50.915Z,2.38
2022-11-24T08:59:20.314Z,1.17
2022-11-24T09:01:50.030Z,2.75
2022-11-24T09:04:19.287Z,1.50
2022-11-24T09:06:48.183Z,3.88
2022-11-24T09:09:17.389Z,4.53
2022-11-24T09:11:46.229Z,7.30
2022-11-24T09:14:15.234Z,9.32
2022-11-24T09:16:44.237Z,7.80
2022-11-24T09:19:16.595Z,9.45
2022-11-24T09:21:47.220Z,7.07
2022-11-24T09:24:21.712Z,5.22
2022-11-24T09:26:53.924Z,12.02
2022-11-24T09:29:26.091Z,3.03
2022-11-24T09:31:55.179Z,3.08
2022-11-24T09:34:24.633Z,5.00
2022-11-24T09:36:53.710Z,39.08
2022-11-24T09:39:22.987Z,5.63
2022-11-24T09:42:02.222Z,3.22
2022-11-24T09:44:55.262Z,6.50
2022-11-24T09:47:47.403Z,2.28
2022-11-24T09:50:24.027Z,2.67
2022-11-24T09:52:55.658Z,4.63
2022-11-24T09:55:53.580Z,9.85
2022-11-24T09:58:42.519Z,2.67
2022-11-24T10:01:30.870Z,2.85
2022-11-24T10:04:13.491Z,5.32
2022-11-24T10:06:47.306Z,20.52
2022-11-24T10:09:47.251Z,16.55
2022-11-24T10:12:46.756Z,26.20
2022-11-24T10:15:23.328Z,13.88
2022-11-24T10:18:16.478Z,5.07
2022-11-24T10:21:05.452Z,8.98
2022-11-24T10:24:03.118Z,9.23
2022-11-24T10:26:54.415Z,5.15
2022-11-24T10:29:36.659Z,9.30
2022-11-24T10:32:34.335Z,4.03
2022-11-24T10:35:18.078Z,6.95
2022-11-24T10:37:57.198Z,4.80
2022-11-24T10:40:59.352Z,2.33
2022-11-24T10:43:21.276Z,7.13
2022-11-24T10:45:52.005Z,4.40
2022-11-24T10:48:29.320Z,2.67
2022-11-24T10:51:40.925Z,5.55
2022-11-24T10:54:23.521Z,2.38
2022-11-24T10:56:57.199Z,4.65
2022-11-24T10:59:28.218Z,3.65
2022-11-24T11:01:59.328Z,5.65
2022-11-24T11:04:36.205Z,2.50
2022-11-24T11:07:21.213Z,1.70
2022-11-24T11:09:50.896Z,4.25
2022-11-24T11:12:43.484Z,4.95
2022-11-24T11:15:31.519Z,2.25
2022-11-24T11:18:02.422Z,2.70
2022-11-24T11:20:36.218Z,5.45
2022-11-24T11:23:17.767Z,3.63
2022-11-24T11:25:49.365Z,2.85
2022-11-24T11:28:27.384Z,4.70
2022-11-24T11:31:18.067Z,6.35
2022-11-24T11:34:20.481Z,1.92
2022-11-24T11:36:53.951Z,7.85
2022-11-24T11:39:36.393Z,1.58
2022-11-24T11:43:00.169Z,2.22
2022-11-24T11:45:48.025Z,2.95
2022-11-24T11:48:42.292Z,1.92
2022-11-24T11:51:40.471Z,1.73
2022-11-24T11:54:21.572Z,6.13
2022-11-24T11:56:59.400Z,4.15
2022-11-24T11:59:51.145Z,4.20
2022-11-24T12:02:29.151Z,10.02
2022-11-24T12:05:02.148Z,4.07
2022-11-24T12:08:17.534Z,2.63
2022-11-24T12:11:01.228Z,7.38
2022-11-24T12:13:42.008Z,3.65
2022-11-24T12:16:34.188Z,2.83
2022-11-24T12:19:28.842Z,6.38
2022-11-24T12:22:19.525Z,3.63
2022-11-24T12:24:57.997Z,7.03
2022-11-24T12:27:39.929Z,6.20
2022-11-24T12:30:25.737Z,8.75
2022-11-24T12:33:39.985Z,7.32
2022-11-24T12:36:46.709Z,8.68
2022-11-24T12:39:28.044Z,6.97
2022-11-24T12:42:11.111Z,9.18
2022-11-24T12:45:09.882Z,5.07
2022-11-24T12:47:39.388Z,6.32
2022-11-24T12:50:23.837Z,26.10
2022-11-24T12:53:04.926Z,2.65
2022-11-24T12:55:34.944Z,3.33
2022-11-24T12:58:25.879Z,5.72
2022-11-24T13:01:26.083Z,7.03
2022-11-24T13:04:19.012Z,23.75
2022-11-24T13:07:04.007Z,2.90
2022-11-24T13:09:33.066Z,3.35
2022-11-24T13:12:16.097Z,6.55
2022-11-24T13:14:51.506Z,4.15
2022-11-24T13:17:50.263Z,4.82
2022-11-24T13:20:33.152Z,3.75
2022-11-24T13:23:26.271Z,3.28
2022-11-24T13:26:27.800Z,4.40
2022-11-24T13:29:23.876Z,6.80
2022-11-24T13:32:18.461Z,3.95
2022-11-24T13:34:57.615Z,7.25
2022-11-24T13:37:34.857Z,8.27
2022-11-24T13:40:14.767Z,8.52
2022-11-24T13:42:59.289Z,5.88
2022-11-24T13:45:44.013Z,6.03
2022-11-24T13:48:22.619Z,10.77
2022-11-24T13:50:52.213Z,7.60
2022-11-24T13:53:33.520Z,2.75
2022-11-24T13:56:16.483Z,5.90
2022-11-24T13:58:50.396Z,3.40
2022-11-24T14:01:31.971Z,3.15
2022-11-24T14:04:30.906Z,3.22
2022-11-24T14:07:08.316Z,7.63
2022-11-24T14:09:48.277Z,14.38
2022-11-24T14:12:22.428Z,5.80
2022-11-24T14:15:13.079Z,5.55
2022-11-24T14:17:42.312Z,3.40
2022-11-24T14:20:35.156Z,3.97
2022-11-24T14:23:05.527Z,3.08
2022-11-24T14:25:36.855Z,1.95
2022-11-24T14:28:36.432Z,2.67
2022-11-24T14:31:19.151Z,5.03
2022-11-24T14:33:52.477Z,4.28
2022-11-24T14:36:23.243Z,3.03
2022-11-24T14:38:55.488Z,7.35
2022-11-24T14:41:29.532Z,9.40
2022-11-24T14:44:07.252Z,9.02
2022-11-24T14:46:37.657Z,6.88
2022-11-24T14:49:10.204Z,6.78
2022-11-24T14:51:45.539Z,5.95
2022-11-24T14:54:27.614Z,3.63
2022-11-24T14:57:06.095Z,2.00
2022-11-24T14:59:39.032Z,2.47
2022-11-24T15:02:56.625Z,4.43
2022-11-24T15:05:27.779Z,2.30
2022-11-24T15:08:04.358Z,2.58
2022-11-24T15:10:39.942Z,3.15
2022-11-24T15:13:20.383Z,5.03
2022-11-24T15:16:03.380Z,1.40
2022-11-24T15:18:50.131Z,4.15
2022-11-24T15:21:34.945Z,7.80
2022-11-24T15:24:19.138Z,1.35
2022-11-24T15:26:48.504Z,1.92
2022-11-24T15:29:17.334Z,1.67
2022-11-24T15:31:50.974Z,1.80
2022-11-24T15:34:22.090Z,3.15
2022-11-24T15:36:51.188Z,3.47
2022-11-24T15:39:20.582Z,8.30
2022-11-24T15:41:49.790Z,18.50
2022-11-24T15:44:21.591Z,52.58
2022-11-24T15:46:51.007Z,69.60
2022-11-24T15:49:29.050Z,83.32
2022-11-24T15:52:01.096Z,73.18
2022-11-24T15:54:30.654Z,39.60
2022-11-24T15:57:00.803Z,30.70
2022-11-24T15:59:33.364Z,28.35
2022-11-24T16:02:03.843Z,54.50
2022-11-24T16:04:36.409Z,151.13
2022-11-24T16:07:09.559Z,108.38
2022-11-24T16:09:42.805Z,37.22
2022-11-24T16:12:11.937Z,25.10
2022-11-24T16:14:43.390Z,26.02
2022-11-24T16:17:15.187Z,13.82
2022-11-24T16:19:53.308Z,19.75
2022-11-24T16:22:48.321Z,14.63
2022-11-24T16:25:17.732Z,2.65
2022-11-24T16:27:48.816Z,3.15
2022-11-24T16:30:17.981Z,18.35
2022-11-24T16:32:55.902Z,17.75
2022-11-24T16:35:24.960Z,45.17
2022-11-24T16:37:59.039Z,63.75
2022-11-24T16:40:32.949Z,89.72
2022-11-24T16:43:02.954Z,110.80
2022-11-24T16:45:34.053Z,10.98
2022-11-24T16:48:06.069Z,51.10
2022-11-24T16:50:35.210Z,235.00
2022-11-24T16:53:04.176Z,12.88
2022-11-24T16:55:33.357Z,22.30
2022-11-24T16:58:05.460Z,44.22
2022-11-24T17:00:34.598Z,24.73
2022-11-24T17:03:07.075Z,67.38
2022-11-24T17:05:36.153Z,23.35
2022-11-24T17:08:07.652Z,12.18
2022-11-24T17:10:53.828Z,42.40
2022-11-24T17:13:24.110Z,28.13
2022-11-24T17:15:54.526Z,35.90
2022-11-24T17:18:29.769Z,10.80
2022-11-24T17:21:07.814Z,23.08
2022-11-24T17:23:39.143Z,8.63
2022-11-24T17:26:16.723Z,38.53
2022-11-24T17:28:46.352Z,23.67
2022-11-24T17:31:28.078Z,5.38
2022-11-24T17:33:58.700Z,44.42
2022-11-24T17:36:36.387Z,65.03
2022-11-24T17:39:10.564Z,10.20
2022-11-24T17:41:39.972Z,110.88
2022-11-24T17:44:18.377Z,46.15
2022-11-24T17:46:48.956Z,28.38
2022-11-24T17:49:25.128Z,81.75
2022-11-24T17:52:03.182Z,59.60
2022-11-24T17:54:50.743Z,103.80
2022-11-24T17:57:24.592Z,57.30
2022-11-24T17:59:54.263Z,61.33
2022-11-24T18:02:25.201Z,59.55
2022-11-24T18:04:56.422Z,119.85
2022-11-24T18:07:45.628Z,108.68
2022-11-24T18:10:29.838Z,206.30
2022-11-24T18:13:22.368Z,260.92
2022-11-24T18:15:53.383Z,35.35
2022-11-24T18:18:25.635Z,132.43
2022-11-24T18:21:08.490Z,98.47
2022-11-24T18:23:39.632Z,94.78
2022-11-24T18:26:15.755Z,246.95
2022-11-24T18:28:47.721Z,102.38
2022-11-24T18:31:27.258Z,9.27
2022-11-24T18:34:04.382Z,9.48
2022-11-24T18:36:47.927Z,2.05
2022-11-24T18:39:20.047Z,7.90
2022-11-24T18:41:49.071Z,2.20
2022-11-24T18:44:18.030Z,2.97
2022-11-24T18:46:46.908Z,2.67
2022-11-24T18:49:15.796Z,19.35
2022-11-24T18:51:44.930Z,10.77
2022-11-24T18:54:15.334Z,9.82
2022-11-24T18:56:44.766Z,19.63
2022-11-24T18:59:13.530Z,2.40
2022-11-24T19:01:42.535Z,3.13
2022-11-24T19:04:12.493Z,3.22
2022-11-24T19:06:41.464Z,3.33
2022-11-24T19:09:17.978Z,2.53
2022-11-24T19:14:18.749Z,2.25
2022-11-24T19:16:50.964Z,2.80
2022-11-24T19:19:20.081Z,2.40
2022-11-24T19:21:48.968Z,3.72
2022-11-24T19:24:18.030Z,2.15
2022-11-24T19:26:46.949Z,2.85
2022-11-24T19:29:16.302Z,2.50
2022-11-24T19:31:45.431Z,2.78
2022-11-24T19:34:16.959Z,3.20
2022-11-24T19:36:45.930Z,4.63
2022-11-24T19:39:16.348Z,2.53
2022-11-24T19:41:45.967Z,1.85
2022-11-24T19:44:15.139Z,2.30
2022-11-24T19:46:49.949Z,1.63
2022-11-24T19:49:24.615Z,3.28
2022-11-24T19:51:54.672Z,2.03
2022-11-24T19:54:23.609Z,2.03
2022-11-24T19:56:54.166Z,2.22
2022-11-24T19:59:24.677Z,2.75
2022-11-24T20:01:55.077Z,2.20
2022-11-24T20:04:24.150Z,2.00
2022-11-24T20:06:58.163Z,2.10
2022-11-24T20:09:30.197Z,3.00
2022-11-24T20:12:03.520Z,2.22
2022-11-24T20:14:38.353Z,1.88
2022-11-24T20:17:11.226Z,4.72
2022-11-24T20:20:22.219Z,1.23
2022-11-24T20:30:12.716Z,3.20
2022-11-24T20:31:57.143Z,2.20
2022-11-24T20:34:33.054Z,2.08
2022-11-24T20:37:35.435Z,5.38
2022-11-24T20:40:21.225Z,3.40
2022-11-24T20:42:59.138Z,2.63
2022-11-24T20:45:59.566Z,3.55
2022-11-24T20:48:52.990Z,3.13
2022-11-24T20:51:25.049Z,2.95
2022-11-24T20:54:02.349Z,4.40
2022-11-24T20:56:34.676Z,3.55
2022-11-24T20:59:05.344Z,3.83
2022-11-24T21:01:46.450Z,3.38
2022-11-24T21:04:22.255Z,5.85
2022-11-24T21:06:51.348Z,4.65
2022-11-24T21:09:20.903Z,10.20
2022-11-24T21:11:58.958Z,5.22
2022-11-24T21:14:35.258Z,6.68
2022-11-24T21:17:13.120Z,8.13
2022-11-24T21:23:32.454Z,6.72
2022-11-24T21:26:18.073Z,5.97
2022-11-24T21:28:56.894Z,8.27
2022-11-24T21:31:37.438Z,6.83
2022-11-24T21:34:11.770Z,6.93
2022-11-24T21:37:09.705Z,8.68
2022-11-24T21:39:39.476Z,10.13
2022-11-24T21:42:10.570Z,6.70
2022-11-24T21:44:51.000Z,4.38
2022-11-24T21:47:21.750Z,3.28
2022-11-24T21:49:56.078Z,4.30
2022-11-24T21:53:28.801Z,3.55
2022-11-24T22:00:02.135Z,5.00
2022-11-24T22:03:05.070Z,4.18
2022-11-24T22:06:12.178Z,5.53
2022-11-24T22:08:41.906Z,2.08
2022-11-24T22:11:19.244Z,4.65
2022-11-24T22:21:34.467Z,3.60
2022-11-24T22:24:04.694Z,5.28
2022-11-24T22:26:40.737Z,3.75
2022-11-24T22:29:11.915Z,4.50
2022-11-24T22:31:41.198Z,4.15
2022-11-24T22:34:15.336Z,3.80
2022-11-24T22:36:44.394Z,2.78
2022-11-24T22:39:19.145Z,5.13
2022-11-24T22:41:48.433Z,4.97
2022-11-24T22:44:17.345Z,4.35
2022-11-24T22:46:46.419Z,5.15
2022-11-24T22:49:15.388Z,4.57
2022-11-24T22:51:44.334Z,4.15
2022-11-24T22:54:14.591Z,4.15
2022-11-24T22:56:43.584Z,6.88
2022-11-24T23:04:07.873Z,6.82
2022-11-24T23:07:43.172Z,8.63
2022-11-24T23:10:44.612Z,7.78
2022-11-24T23:13:16.632Z,6.45
2022-11-24T23:15:45.686Z,4.93
2022-11-24T23:18:15.251Z,12.85
2022-11-24T23:21:02.230Z,28.15
2022-11-24T23:23:41.126Z,8.60
2022-11-24T23:26:22.541Z,7.07
2022-11-24T23:29:13.070Z,16.95
2022-11-24T23:31:52.178Z,17.77
2022-11-24T23:34:23.365Z,120.78
2022-11-24T23:36:58.767Z,15.57
2022-11-24T23:39:35.651Z,6.72
2022-11-24T23:42:11.057Z,8.47
2022-11-24T23:44:40.035Z,8.10
2022-11-24T23:47:08.927Z,7.95
2022-11-24T23:49:37.946Z,6.05
2022-11-24T23:52:06.806Z,10.00
2022-11-24T23:54:35.883Z,8.25
2022-11-24T23:57:07.419Z,10.50
2022-11-24T23:59:43.030Z,8.05
